Heroic Leader — C6ZD2 — position and weather

sailwx.info

Track history (hours):
 
Tides and Currents Weather Stations Pressure Air Temp Water Temp Dewpoint Dewpoint Depression Visibility Wind Speed Wind Dir Waves Ship Positions

Heroic Leader

Last reported at 2015-Aug-30 11:33 UTC. Time now 2015-Sep-05 01:11 UTC.
Position N 34°56' E 139°26'.

Length 200 m; draft 8.3 m.

Type: Cargo ship. MMSI: 311052700.

Date/timePositionNaut miles runAvg speedWind from/ knotsBaromVisibWave heightAir tempDewpointWater temp
2015-Aug-30 11:33N 34°56' E 139°26'2010.2
2015-Aug-30 09:33N 35°10' E 139°45'1111.1
2015-Aug-30 08:33N 35°21' E 139°42'8 7.5
2015-Aug-30 07:34N 35°28' E 139°41'0 0.0
2015-Aug-30 06:31N 35°28' E 139°41'0 0.0
2015-Aug-30 05:31N 35°28' E 139°41'0 0.0
2015-Aug-30 04:31N 35°28' E 139°41'0 0.0
2015-Aug-30 03:31N 35°28' E 139°41'0 0.0
2015-Aug-30 02:31N 35°28' E 139°41'0 0.0
2015-Aug-30 01:34N 35°28' E 139°41'0 0.0
2015-Aug-30 00:34N 35°28' E 139°41'0 0.0
2015-Aug-29 23:33N 35°28' E 139°41'0 0.0
2015-Aug-29 22:31N 35°28' E 139°41'2 2.5
2015-Aug-29 21:33N 35°27' E 139°43'9 9.1
2015-Aug-29 20:33N 35°18' E 139°45'10 9.7
2015-Aug-29 19:33N 35°08' E 139°45'  
2015-Aug-27 14:07N 31°17' E 121°50'712.2
2015-Aug-27 13:34N 31°19' E 121°42'1 0.5
2015-Aug-27 11:13N 31°19' E 121°41'0 0.0
2015-Aug-27 10:31N 31°19' E 121°41'0 0.0
2015-Aug-27 09:31N 31°19' E 121°41'0 0.0
2015-Aug-27 08:31N 31°19' E 121°41'0 0.0
2015-Aug-27 07:31N 31°19' E 121°41'0 0.0
2015-Aug-27 06:31N 31°19' E 121°41'0 0.0
2015-Aug-27 05:31N 31°19' E 121°41'0 0.0
2015-Aug-27 04:31N 31°19' E 121°41'0 0.0
2015-Aug-27 03:31N 31°19' E 121°41'0 0.0
2015-Aug-27 02:31N 31°19' E 121°41'0 0.4
2015-Aug-27 01:33N 31°19' E 121°41'7 6.7
2015-Aug-27 00:33N 31°17' E 121°49'1010.3
2015-Aug-26 23:33N 31°15' E 122°00'1110.7
2015-Aug-26 22:33N 31°10' E 122°12'8 8.4
2015-Aug-26 21:33N 31°06' E 122°20'9 8.8
2015-Aug-26 20:33N 31°07' E 122°31'6 6.2
2015-Aug-26 19:31N 31°10' E 122°37'  
2015-Aug-21 10:33N 01°13' E 103°48'5 5.1
2015-Aug-21 09:33N 01°17' E 103°45'0 0.0
2015-Aug-21 08:27N 01°17' E 103°45'0 0.0
2015-Aug-21 07:24N 01°17' E 103°45'0 0.0
2015-Aug-21 06:33N 01°17' E 103°45'0 0.0
2015-Aug-21 05:33N 01°17' E 103°45'0 0.0
2015-Aug-21 04:33N 01°17' E 103°45'0 0.0
2015-Aug-21 03:27N 01°17' E 103°45'0 0.0
2015-Aug-21 02:33N 01°17' E 103°45'0 0.0
2015-Aug-21 00:33N 01°17' E 103°45'0 0.0
2015-Aug-20 23:33N 01°17' E 103°45'3 3.1
2015-Aug-20 22:33N 01°14' E 103°43'  
Track history (hours):
 
Tides and Currents Weather Stations Pressure Air Temp Water Temp Dewpoint Dewpoint Depression Visibility Wind Speed Wind Dir Waves Ship Positions

Heroic Leader

Last reported at 2015-Aug-30 11:33 UTC. Time now 2015-Sep-05 01:11 UTC.
Position N 34°56' E 139°26'.

Length 200 m; draft 8.3 m.

Type: Cargo ship. MMSI: 311052700.

Date/timePositionNaut miles runAvg speedWind from/ knotsBaromVisibWave heightAir tempDewpointWater temp
2015-Aug-30 11:33N 34°56' E 139°26'2010.2
2015-Aug-30 09:33N 35°10' E 139°45'1111.1
2015-Aug-30 08:33N 35°21' E 139°42'8 7.5
2015-Aug-30 07:34N 35°28' E 139°41'0 0.0
2015-Aug-30 06:31N 35°28' E 139°41'0 0.0
2015-Aug-30 05:31N 35°28' E 139°41'0 0.0
2015-Aug-30 04:31N 35°28' E 139°41'0 0.0
2015-Aug-30 03:31N 35°28' E 139°41'0 0.0
2015-Aug-30 02:31N 35°28' E 139°41'0 0.0
2015-Aug-30 01:34N 35°28' E 139°41'0 0.0
2015-Aug-30 00:34N 35°28' E 139°41'0 0.0
2015-Aug-29 23:33N 35°28' E 139°41'0 0.0
2015-Aug-29 22:31N 35°28' E 139°41'2 2.5
2015-Aug-29 21:33N 35°27' E 139°43'9 9.1
2015-Aug-29 20:33N 35°18' E 139°45'10 9.7
2015-Aug-29 19:33N 35°08' E 139°45'  
2015-Aug-27 14:07N 31°17' E 121°50'712.2
2015-Aug-27 13:34N 31°19' E 121°42'1 0.5
2015-Aug-27 11:13N 31°19' E 121°41'0 0.0
2015-Aug-27 10:31N 31°19' E 121°41'0 0.0
2015-Aug-27 09:31N 31°19' E 121°41'0 0.0
2015-Aug-27 08:31N 31°19' E 121°41'0 0.0
2015-Aug-27 07:31N 31°19' E 121°41'0 0.0
2015-Aug-27 06:31N 31°19' E 121°41'0 0.0
2015-Aug-27 05:31N 31°19' E 121°41'0 0.0
2015-Aug-27 04:31N 31°19' E 121°41'0 0.0
2015-Aug-27 03:31N 31°19' E 121°41'0 0.0
2015-Aug-27 02:31N 31°19' E 121°41'0 0.4
2015-Aug-27 01:33N 31°19' E 121°41'7 6.7
2015-Aug-27 00:33N 31°17' E 121°49'1010.3
2015-Aug-26 23:33N 31°15' E 122°00'1110.7
2015-Aug-26 22:33N 31°10' E 122°12'8 8.4
2015-Aug-26 21:33N 31°06' E 122°20'9 8.8
2015-Aug-26 20:33N 31°07' E 122°31'6 6.2
2015-Aug-26 19:31N 31°10' E 122°37'  
2015-Aug-21 10:33N 01°13' E 103°48'5 5.1
2015-Aug-21 09:33N 01°17' E 103°45'0 0.0
2015-Aug-21 08:27N 01°17' E 103°45'0 0.0
2015-Aug-21 07:24N 01°17' E 103°45'0 0.0
2015-Aug-21 06:33N 01°17' E 103°45'0 0.0
2015-Aug-21 05:33N 01°17' E 103°45'0 0.0
2015-Aug-21 04:33N 01°17' E 103°45'0 0.0
2015-Aug-21 03:27N 01°17' E 103°45'0 0.0
2015-Aug-21 02:33N 01°17' E 103°45'0 0.0
2015-Aug-21 00:33N 01°17' E 103°45'0 0.0
2015-Aug-20 23:33N 01°17' E 103°45'3 3.1
2015-Aug-20 22:33N 01°14' E 103°43'  

Dump ship's entire track history